Felipe Pacheco

Скаут - Grêmio
19 Авг 2027
Четверг
Продолжить

Характер

Адаптивность (20) Амбиции (2) Скандальность (10) Верность (12) Стрессоустойчивость (15) Профессионализм (19) Благородство (14) Темперамент (11)

Профиль

Стиль управления Демократичный
Лицензия Национальная A
Решительность 13
Управление людьми 8
Мотивация 11
Дисциплина 9
Удовлетворённость
100%
Усталость
0%
Должность Скаут
Зарплата 109.3K в нед.
Контракт 14.03.2030

Производительность

Поведение Хорошее
Эффективность тренировок
65%
Развитие игроков
35%
Профилактика травм
40%
Тактическая реализация
70%

Недавние события

Участвовал в селекционном совещании только что
Оценил игрока 7 дн. назад
Участвовал в селекционном совещании 7 дн. назад
Рекомендовал трансферную цель 7 дн. назад
Участвовал в селекционном совещании 7 дн. назад
Оценил игрока 7 дн. назад
Оценил игрока 7 дн. назад
Оценил игрока 7 дн. назад

Текущее наблюдение

149
Игрок Клуб Статус Способность Уверенность Наблюдений Последнее наблюдение Последний голос
Curtis Jones Inter Активный 162 / 164 40% 8 15.08.2027 -
Mateo Mendoza Godoy Cruz Активный 128 / 125 40% 1 15.08.2027 -
Fikayo Tomori AC Milan Активный 155 / 158 40% 1 15.08.2027 -
Manu Koné AS Roma Активный 168 / 166 40% 4 12.08.2027 Нужно больше данных
Alessio Romagnoli Lazio Активный 151 / 148 40% 1 12.08.2027 -
Adrià Altimira Deportivo La Coruña Активный 138 / 131 40% 1 12.08.2027 -
Oumar Solet Udinese Активный 152 / 152 40% 1 11.08.2027 -
Josh Doig Sassuolo Активный 141 / 137 40% 1 11.08.2027 -
Adam Wharton Crystal Palace Активный 157 / 159 40% 1 09.08.2027 -
Christos Mouzakitis Hull City Активный 137 / 148 40% 1 09.08.2027 -
Dara O'Shea Ipswich Town Активный 141 / 141 40% 2 07.08.2027 -
Tyler Adams Bournemouth Активный 158 / 157 40% 3 07.08.2027 -
Sven Botman Newcastle United Активный 163 / 166 40% 2 07.08.2027 -
Ethan Galbraith Swansea City Активный 138 / 131 40% 3 06.08.2027 -
Mats Wieffer Brighton Активный 152 / 153 40% 1 06.08.2027 -
Saša Lukić Ipswich Town Активный 146 / 140 40% 2 04.08.2027 -
Callum Brittain Middlesbrough Активный 135 / 132 40% 4 04.08.2027 -
Toby Collyer West Bromwich Albion Активный 137 / 144 40% 1 04.08.2027 -
Boubacar Kamara Aston Villa Активный 167 / 162 40% 4 02.08.2027 -
Imrân Louza Watford Активный 135 / 130 40% 1 02.08.2027 -
Óscar Mingueza Crystal Palace Активный 154 / 150 40% 4 19.07.2027 -
Ryan Sessegnon Fulham Активный 149 / 152 40% 4 19.07.2027 -
Jhosefer ABC Активный 109 / 109 95% 1 01.06.2027 За
Florentino Luís Ipswich Town Активный 142 / 139 40% 2 30.05.2027 -
Morgan Whittaker Middlesbrough Активный 133 / 131 40% 6 28.05.2027 -
Kevin Fulham Активный 151 / 145 40% 3 28.05.2027 -
Scott Twine Bristol City Активный 127 / 128 40% 1 28.05.2027 -
Marco Asensio Fenerbahce Активный 158 / 149 40% 3 26.05.2027 Наблюдать
Francisco Conceição Juventus Активный 160 / 158 40% 2 26.05.2027 -
Georginio Rutter Brighton Активный 149 / 154 40% 2 26.05.2027 -
Jack Rudoni Coventry City Активный 136 / 128 40% 3 24.05.2027 -
Giacomo Raspadori Atalanta Активный 149 / 148 40% 6 24.05.2027 -
Jacob Ramsey Newcastle United Активный 153 / 148 40% 2 24.05.2027 -
Amadou Onana Aston Villa Активный 156 / 159 40% 2 21.05.2027 -
Hector Ramirez Newcastle United Активный 153 / 156 40% 1 21.05.2027 Нужно больше данных
Adrien Truffert Bournemouth Активный 150 / 154 40% 2 19.05.2027 -
Andrey Oeste Активный 103 / 103 30% 1 / 1m 19.05.2027 -
Wellerson Sampaio Correa Активный 101 / 101 30% 1 / 1m 19.05.2027 -
Dango Ouattara Brentford Активный 148 / 140 40% 4 18.05.2027 -
Xavi Simons Tottenham Активный 159 / 159 40% 4 17.05.2027 -
Callum Hudson-Odoi Nottingham Forest Активный 152 / 149 40% 1 16.05.2027 -
Ousmane Diomande Nottingham Forest Активный 152 / 160 40% 2 15.05.2027 -
Yehor Yarmoliuk Brentford Активный 148 / 154 40% 2 15.05.2027 -
Kenny Tete Fulham Активный 143 / 139 40% 1 15.05.2027 -
Kenan Yıldız Juventus Активный 163 / 163 40% 1 10.05.2027 -
Matías Soulé AS Roma Активный 157 / 159 40% 1 10.05.2027 -
Quinten Timber Crystal Palace Активный 151 / 147 40% 1 09.05.2027 -
Léo Scienza Southampton Активный 139 / 136 40% 1 08.05.2027 -
Derry Murkin Derby County Активный 127 / 126 40% 2 07.05.2027 -
Nordi Mukiele Sunderland Активный 145 / 146 40% 1 07.05.2027 -
Tom Fellows Southampton Активный 134 / 129 40% 11 06.05.2027 -
Finn Azaz Southampton Активный 130 / 122 40% 4 04.05.2027 -
Harry Wilson Leeds United Активный 144 / 138 40% 1 04.05.2027 -
Mikkel Damsgaard Brentford Активный 147 / 144 40% 2 03.05.2027 -
Carlos Vicente Birmingham Активный 145 / 140 40% 2 02.05.2027 Нужно больше данных
Othmane Maamma Watford Активный 126 / 134 40% 1 01.05.2027 -
Jan Paul van Hecke Tottenham Активный 159 / 160 40% 1 30.04.2027 -
Anton Stach Leeds United Активный 150 / 148 40% 2 29.04.2027 -
Kiernan Dewsbury-Hall Everton Активный 153 / 148 40% 1 29.04.2027 -
Welington Southampton Активный 133 / 129 40% 1 29.04.2027 -
Nico González Newcastle United Активный 162 / 156 40% 2 28.04.2027 Нужно больше данных
Manuel Locatelli Juventus Активный 154 / 153 40% 1 26.04.2027 -
Mario Dorgeles Braga Активный 136 / 133 40% 9 25.04.2027 -
Pau Víctor AVS Активный 141 / 137 40% 5 25.04.2027 -
Ricardo Horta Braga Активный 151 / 145 40% 5 25.04.2027 -
William Gomes Porto Активный 142 / 151 40% 4 24.04.2027 -
Renato Sanches AVS Активный 132 / 130 40% 2 22.04.2027 -
Víctor Gómez Braga Активный 142 / 137 40% 8 20.04.2027 -
Rodrigo Zalazar Sporting CP Активный 152 / 153 40% 2 20.04.2027 -
Samu Vitoria Guimaraes Активный 130 / 124 40% 4 15.04.2027 -
Diego Lainez Tigres Активный 132 / 131 40% 5 13.04.2027 -
Iván Fresneda Sporting CP Активный 142 / 147 40% 6 12.04.2027 -
Luís Guilherme Sporting CP Активный 130 / 134 40% 2 12.04.2027 -
Ozziel Herrera Tigres Активный 131 / 132 40% 5 12.04.2027 -
Francisco Moura Lusitânia Lourosa Активный 141 / 139 40% 9 11.04.2027 -
Shea Charles Southampton Активный 135 / 141 40% 2 11.04.2027 -
Kyle Walker-Peters West Ham United Активный 137 / 140 40% 1 10.04.2027 -
Lee Hyun-Ju Arouca Активный 123 / 117 40% 7 09.04.2027 -
Alejandro Zendejas Club America Активный 142 / 143 40% 2 09.04.2027 -
Gianluca Prestianni Benfica Активный 136 / 143 40% 3 09.04.2027 -
Telmo Arcanjo Vitoria Guimaraes Активный 125 / 120 40% 1 09.04.2027 -
Alfonso Trezza Arouca Активный 124 / 125 40% 1 08.04.2027 -
Gabri Martínez Braga Активный 130 / 137 40% 6 04.04.2027 -
Luis Quintero Torreense Активный 125 / 124 40% 4 04.04.2027 -
Juninho Pumas UNAM Активный 131 / 131 40% 3 03.04.2027 -
Jesús Ricardo Angulo Toluca Активный 135 / 128 40% 8 02.04.2027 -
Fredrik Aursnes Benfica Активный 151 / 150 40% 1 31.03.2027 -
Pepê Porto Активный 147 / 138 40% 3 28.03.2027 -
Luís Esteves Atlas Активный 130 / 131 40% 4 28.03.2027 -
Isaiah Jones Luton Town Активный 126 / 126 40% 1 28.03.2027 -
Valery Académico de Viseu Активный 126 / 121 40% 1 28.03.2027 -
Nuno Santos Sporting CP Активный 139 / 133 40% 5 24.03.2027 -
Víctor Dávila Club America Активный 129 / 129 40% 2 24.03.2027 -
Paulo Moreira Farense Активный 125 / 124 40% 2 22.03.2027 -
Bosun Lawal Stoke City Активный 129 / 125 40% 1 22.03.2027 -
Alan Varela Porto Активный 145 / 146 40% 6 19.03.2027 -
Alberto Costa Porto Активный 144 / 139 40% 14 18.03.2027 -
Gabriel Veron Porto Активный 128 / 129 40% 1 18.03.2027 -
Soungoutou Magassa West Ham United Активный 133 / 138 40% 1 14.03.2027 -
Lewis Ferguson Bologna Активный 145 / 141 40% 1 14.03.2027 -
Erick Sánchez OGC Nice Активный 142 / 145 40% 2 13.03.2027 -
Agustín Palavecino Cruz Azul Активный 139 / 134 40% 1 09.03.2027 -
André Silva Tondela Активный 129 / 122 40% 4 08.03.2027 -
Gonçalo Inácio Sporting CP Активный 147 / 148 40% 6 07.03.2027 -
Gustaf Lagerbielke Braga Активный 137 / 138 40% 2 07.03.2027 -
Aidan Morris Middlesbrough Активный 132 / 126 40% 1 07.03.2027 -
Rodrigo Pinheiro Famalicao Активный 127 / 132 40% 6 03.03.2027 -
Santi García Gil Vicente Активный 132 / 135 40% 9 03.03.2027 -
João Palhinha Benfica Активный 150 / 151 40% 2 01.03.2027 -
Derensili Sanches Fernandes Huddersfield Town Активный 125 / 127 40% 2 26.02.2027 -
Callum Doyle Wrexham Активный 130 / 131 40% 1 23.02.2027 -
Félix Lemaréchal Club Brugge Активный 137 / 132 40% 2 21.02.2027 -
Gustavo Silva Vitoria Guimaraes Активный 125 / 118 40% 1 21.02.2027 -
Heorhii Sudakov Benfica Активный 147 / 142 40% 4 20.02.2027 -
Brian Rodríguez Club America Активный 130 / 130 40% 1 11.02.2027 -
Lewis Morgan SuperSport United Активный 127 / 121 40% 2 07.02.2027 -
Christian Krasnodar Активный 137 / 128 40% 1 06.02.2027 -
Samuel Lino Flamengo Активный 140 / 142 40% 4 04.02.2027 -
Dodi Lukébakio Benfica Активный 146 / 141 40% 1 03.02.2027 -
Jordan Holsgrove Estoril Praia Активный 127 / 136 40% 2 25.01.2027 -
Rafik Guitane Estoril Praia Активный 129 / 136 40% 2 25.01.2027 -
João Simões Sporting CP Активный 127 / 138 40% 1 20.01.2027 -
Figueiredo Alverca Активный 125 / 133 40% 3 19.01.2027 -
Henry Mosquera Bragantino Активный 133 / 125 40% 2 15.01.2027 -
Bright Arrey-Mbi Braga Активный 131 / 130 40% 1 29.11.2026 -
Matheuzinho Corinthians Активный 129 / 127 40% 2 24.11.2026 -
Sergi Altimira Sporting CP Активный 140 / 138 40% 3 22.11.2026 -
Tomás Araújo Benfica Активный 149 / 149 40% 1 19.11.2026 -
Lucas Piton Vasco da Gama Активный 129 / 125 40% 3 16.11.2026 -
Mathias De Amorim Famalicao Активный 128 / 131 40% 1 16.11.2026 -
Zeno Debast Sporting CP Активный 145 / 141 40% 3 15.11.2026 -
Lukáš Červ Viktoria Plzen Активный 132 / 136 40% 1 14.11.2026 -
Victor Froholdt Porto Активный 147 / 164 40% 1 07.11.2026 -
Adalberto Carrasquilla Pumas UNAM Активный 128 / 124 40% 2 01.11.2026 -
Vitinho Botafogo Активный 130 / 133 40% 1 28.10.2026 -
Leandro Lozano Boca Juniors Активный 127 / 127 40% 1 28.10.2026 -
Matheus Bidu Corinthians Активный 127 / 130 40% 2 23.10.2026 -
Caio Alexandre Bahia Активный 134 / 135 40% 3 15.10.2026 -
Dinis Pinto Moreirense Активный 128 / 124 40% 3 15.10.2026 -
Facundo Mura Inter Miami CF Активный 127 / 126 40% 2 05.10.2026 -
Aníbal Moreno River Plate Активный 134 / 130 40% 1 05.10.2026 -
Nicolás Romero Minnesota United FC Активный 125 / 132 40% 1 27.09.2026 -
Kevin Álvarez Club America Активный 135 / 134 40% 1 23.09.2026 -
Emerson Royal Flamengo Активный 136 / 128 40% 1 19.09.2026 -
Chico Kim Mirassol Активный 124 / 124 30% 1 / 1m 19.08.2026 -
Erick Vitória Активный 132 / 132 52% 1 / 1m 19.08.2026 -
Jader Santa Clara Активный 114 / 117 42% 1 / 1m 12.08.2026 -
Brais Méndez Columbus Crew Активный 148 / 143 40% 1 05.08.2026 -
Pablo Rosario Porto Активный 138 / 143 40% 1 04.08.2026 -